SIC0126 EDFH-LICJ
Flight info
| Callsign | SIC0126 |
|---|---|
| Flight time | 1h 55m |
| Altitude | 33000 |
| Route | ULKIG2E ULKIG Y180 DONAB Z114 ODAVU Y163 NATOR DCT TRA DCT SUXAN DCT OSTEG DCT NISIL DCT PETAS DCT GAVRA DCT UNIXO DCT LURON |
| Aircraft | A21N/M-SDE2E3FGHIRWXY/LB1 |
Departure
| Time | 2026-05-08 20:31 |
|---|---|
| Airport | Frankfurt-Hahn Airport (EDFH) |
Arrival
| Time | 2026-05-08 22:27 |
|---|---|
| Airport | Falcone–Borsellino Airport (LICJ) |
| Time | Latitude | Longitude | Altitude | Speed | Heading |
|---|---|---|---|---|---|
| 2026-05-08 20:03 | 49.94741 | 7.26833 | 1623 ft | 0 kts | 33° |
| 2026-05-08 20:18 | 49.94739 | 7.26831 | 1595 ft | 2 kts | 33° |
| 2026-05-08 20:19 | 49.94721 | 7.26814 | 1625 ft | 4 kts | 24° |
| 2026-05-08 20:19 | 49.94699 | 7.26809 | 1624 ft | 4 kts | 329° |
| 2026-05-08 20:19 | 49.94684 | 7.26838 | 1623 ft | 4 kts | 295° |
| 2026-05-08 20:19 | 49.94677 | 7.26861 | 1622 ft | 0 kts | 302° |
| 2026-05-08 20:24 | 49.94678 | 7.26857 | 1622 ft | 2 kts | 302° |
| 2026-05-08 20:24 | 49.94694 | 7.26819 | 1622 ft | 6 kts | 302° |
| 2026-05-08 20:25 | 49.94716 | 7.26759 | 1622 ft | 7 kts | 286° |
| 2026-05-08 20:25 | 49.94691 | 7.26688 | 1627 ft | 9 kts | 211° |
| 2026-05-08 20:25 | 49.94630 | 7.26639 | 1627 ft | 11 kts | 193° |
| 2026-05-08 20:25 | 49.94561 | 7.26634 | 1625 ft | 9 kts | 205° |
| 2026-05-08 20:26 | 49.94499 | 7.26574 | 1626 ft | 12 kts | 214° |
| 2026-05-08 20:26 | 49.94417 | 7.26489 | 1628 ft | 16 kts | 214° |
| 2026-05-08 20:26 | 49.94316 | 7.26385 | 1631 ft | 19 kts | 213° |
| 2026-05-08 20:26 | 49.94198 | 7.26263 | 1633 ft | 21 kts | 213° |
| 2026-05-08 20:27 | 49.94073 | 7.26138 | 1634 ft | 22 kts | 213° |
| 2026-05-08 20:27 | 49.93942 | 7.26006 | 1635 ft | 23 kts | 213° |
| 2026-05-08 20:27 | 49.93820 | 7.25871 | 1639 ft | 18 kts | 227° |
| 2026-05-08 20:27 | 49.93731 | 7.25736 | 1639 ft | 14 kts | 219° |
| 2026-05-08 20:28 | 49.93710 | 7.25614 | 1640 ft | 13 kts | 266° |
| 2026-05-08 20:28 | 49.93654 | 7.25503 | 1641 ft | 14 kts | 211° |
| 2026-05-08 20:28 | 49.93560 | 7.25414 | 1644 ft | 18 kts | 212° |
| 2026-05-08 20:28 | 49.93445 | 7.25303 | 1646 ft | 20 kts | 212° |
| 2026-05-08 20:29 | 49.93329 | 7.25187 | 1648 ft | 15 kts | 213° |
| 2026-05-08 20:29 | 49.93238 | 7.25097 | 1647 ft | 16 kts | 212° |
| 2026-05-08 20:29 | 49.93141 | 7.25001 | 1649 ft | 17 kts | 212° |
| 2026-05-08 20:29 | 49.93081 | 7.24904 | 1650 ft | 12 kts | 266° |
| 2026-05-08 20:30 | 49.93115 | 7.24782 | 1648 ft | 13 kts | 300° |
| 2026-05-08 20:30 | 49.93157 | 7.24718 | 1648 ft | 6 kts | 0° |
| 2026-05-08 20:30 | 49.93211 | 7.24756 | 1648 ft | 17 kts | 34° |
| 2026-05-08 20:30 | 49.93483 | 7.25030 | 1649 ft | 81 kts | 32° |
| 2026-05-08 20:31 | 49.94145 | 7.25675 | 1636 ft | 139 kts | 32° |
| 2026-05-08 20:31 | 49.95073 | 7.26594 | 1638 ft | 176 kts | 31° |
| 2026-05-08 20:31 | 49.96133 | 7.27591 | 2103 ft | 179 kts | 33° |
| 2026-05-08 20:31 | 49.97196 | 7.28655 | 2630 ft | 184 kts | 34° |
| 2026-05-08 20:32 | 49.98296 | 7.29713 | 3213 ft | 187 kts | 33° |
| 2026-05-08 20:32 | 49.99416 | 7.30793 | 3746 ft | 191 kts | 34° |
| 2026-05-08 20:32 | 50.00558 | 7.31891 | 4354 ft | 196 kts | 33° |
| 2026-05-08 20:32 | 50.01722 | 7.33006 | 5031 ft | 197 kts | 32° |
| 2026-05-08 20:33 | 50.02968 | 7.33899 | 5654 ft | 200 kts | 13° |
| 2026-05-08 20:33 | 50.04383 | 7.33869 | 6039 ft | 214 kts | 342° |
| 2026-05-08 20:33 | 50.05717 | 7.32646 | 6271 ft | 235 kts | 311° |
| 2026-05-08 20:33 | 50.06488 | 7.30312 | 6538 ft | 256 kts | 278° |
| 2026-05-08 20:34 | 50.06280 | 7.27536 | 6973 ft | 267 kts | 245° |
| 2026-05-08 20:34 | 50.05103 | 7.25317 | 7604 ft | 272 kts | 214° |
| 2026-05-08 20:34 | 50.01473 | 7.23708 | 9079 ft | 280 kts | 176° |
| 2026-05-08 20:35 | 49.99580 | 7.24491 | 9780 ft | 286 kts | 155° |
| 2026-05-08 20:35 | 49.97892 | 7.26173 | 10392 ft | 295 kts | 145° |
| 2026-05-08 20:35 | 49.96228 | 7.28178 | 10707 ft | 312 kts | 140° |
| 2026-05-08 20:35 | 49.94596 | 7.30547 | 10974 ft | 330 kts | 135° |
| 2026-05-08 20:36 | 49.93155 | 7.33438 | 11222 ft | 349 kts | 121° |
| 2026-05-08 20:36 | 49.92222 | 7.37016 | 11467 ft | 367 kts | 106° |
| 2026-05-08 20:36 | 49.91633 | 7.40942 | 11810 ft | 379 kts | 103° |
| 2026-05-08 20:36 | 49.91066 | 7.44964 | 12412 ft | 383 kts | 103° |
| 2026-05-08 20:37 | 49.90479 | 7.49005 | 13050 ft | 386 kts | 104° |
| 2026-05-08 20:37 | 49.89873 | 7.53063 | 13663 ft | 389 kts | 104° |
| 2026-05-08 20:37 | 49.89212 | 7.57155 | 14214 ft | 391 kts | 109° |
| 2026-05-08 20:37 | 49.87993 | 7.60922 | 14697 ft | 392 kts | 126° |
| 2026-05-08 20:38 | 49.86821 | 7.63048 | 15033 ft | 393 kts | 137° |
| 2026-05-08 20:38 | 49.84634 | 7.65577 | 15547 ft | 394 kts | 149° |
| 2026-05-08 20:38 | 49.82240 | 7.67697 | 16074 ft | 397 kts | 152° |
| 2026-05-08 20:38 | 49.79001 | 7.70378 | 16775 ft | 402 kts | 153° |
| 2026-05-08 20:39 | 49.77322 | 7.71753 | 17131 ft | 404 kts | 153° |
| 2026-05-08 20:39 | 49.74831 | 7.73793 | 17664 ft | 407 kts | 153° |
| 2026-05-08 20:39 | 49.72310 | 7.75858 | 18170 ft | 411 kts | 153° |
| 2026-05-08 20:39 | 49.69785 | 7.77930 | 18627 ft | 414 kts | 153° |
| 2026-05-08 20:40 | 49.67220 | 7.80043 | 19088 ft | 417 kts | 153° |
| 2026-05-08 20:40 | 49.64667 | 7.82185 | 19536 ft | 420 kts | 150° |
| 2026-05-08 20:40 | 49.62236 | 7.84715 | 19995 ft | 423 kts | 146° |
| 2026-05-08 20:40 | 49.59843 | 7.87358 | 20444 ft | 425 kts | 146° |
| 2026-05-08 20:41 | 49.57428 | 7.90021 | 20876 ft | 428 kts | 146° |
| 2026-05-08 20:41 | 49.54997 | 7.92677 | 21320 ft | 430 kts | 146° |
| 2026-05-08 20:41 | 49.52543 | 7.95340 | 21744 ft | 432 kts | 146° |
| 2026-05-08 20:41 | 49.50116 | 7.97964 | 22143 ft | 434 kts | 146° |
| 2026-05-08 20:42 | 49.47598 | 8.00681 | 22567 ft | 437 kts | 146° |
| 2026-05-08 20:42 | 49.45108 | 8.03366 | 22942 ft | 439 kts | 146° |
| 2026-05-08 20:42 | 49.42599 | 8.06070 | 23319 ft | 442 kts | 147° |
| 2026-05-08 20:42 | 49.40075 | 8.08786 | 23701 ft | 444 kts | 147° |
| 2026-05-08 20:43 | 49.37572 | 8.11473 | 24009 ft | 446 kts | 147° |
| 2026-05-08 20:43 | 49.35025 | 8.14206 | 24119 ft | 448 kts | 147° |
| 2026-05-08 20:43 | 49.32436 | 8.16981 | 24142 ft | 447 kts | 147° |
| 2026-05-08 20:43 | 49.29887 | 8.19717 | 24196 ft | 449 kts | 147° |
| 2026-05-08 20:44 | 49.27321 | 8.22468 | 24483 ft | 451 kts | 147° |
| 2026-05-08 20:44 | 49.24752 | 8.25216 | 24861 ft | 452 kts | 147° |
| 2026-05-08 20:44 | 49.22169 | 8.27972 | 25204 ft | 454 kts | 147° |
| 2026-05-08 20:44 | 49.19597 | 8.30705 | 25526 ft | 457 kts | 147° |
| 2026-05-08 20:45 | 49.16985 | 8.33474 | 25838 ft | 459 kts | 147° |
| 2026-05-08 20:45 | 49.14320 | 8.36299 | 26151 ft | 461 kts | 147° |
| 2026-05-08 20:45 | 49.11675 | 8.39082 | 26439 ft | 463 kts | 149° |
| 2026-05-08 20:45 | 49.08896 | 8.41393 | 26773 ft | 460 kts | 159° |
| 2026-05-08 20:46 | 49.05816 | 8.42809 | 27160 ft | 455 kts | 172° |
| 2026-05-08 20:46 | 49.02715 | 8.43161 | 27521 ft | 451 kts | 184° |
| 2026-05-08 20:46 | 48.99583 | 8.42519 | 27895 ft | 447 kts | 194° |
| 2026-05-08 20:46 | 48.96561 | 8.41441 | 28278 ft | 446 kts | 196° |
| 2026-05-08 20:47 | 48.93586 | 8.40337 | 28669 ft | 446 kts | 196° |
| 2026-05-08 20:47 | 48.90533 | 8.39230 | 29090 ft | 445 kts | 196° |
| 2026-05-08 20:47 | 48.87561 | 8.38181 | 29493 ft | 444 kts | 195° |
| 2026-05-08 20:47 | 48.84516 | 8.37127 | 29880 ft | 443 kts | 195° |
| 2026-05-08 20:48 | 48.81506 | 8.36092 | 30235 ft | 442 kts | 195° |
| 2026-05-08 20:48 | 48.78509 | 8.35057 | 30514 ft | 442 kts | 196° |
| 2026-05-08 20:48 | 48.75512 | 8.33976 | 30743 ft | 443 kts | 198° |
| 2026-05-08 20:48 | 48.72515 | 8.32867 | 31007 ft | 444 kts | 198° |
| 2026-05-08 20:49 | 48.69549 | 8.31778 | 31262 ft | 444 kts | 198° |
| 2026-05-08 20:49 | 48.66546 | 8.30678 | 31518 ft | 444 kts | 198° |
| 2026-05-08 20:49 | 48.63505 | 8.29572 | 31791 ft | 444 kts | 198° |
| 2026-05-08 20:49 | 48.60537 | 8.28491 | 32039 ft | 444 kts | 198° |
| 2026-05-08 20:50 | 48.57532 | 8.27398 | 32285 ft | 444 kts | 198° |
| 2026-05-08 20:50 | 48.54531 | 8.26308 | 32537 ft | 444 kts | 198° |
| 2026-05-08 20:50 | 48.51522 | 8.25253 | 32775 ft | 445 kts | 195° |
| 2026-05-08 20:50 | 48.48430 | 8.24734 | 32978 ft | 451 kts | 185° |
| 2026-05-08 20:51 | 48.45278 | 8.25123 | 33121 ft | 458 kts | 176° |
| 2026-05-08 20:51 | 48.38987 | 8.26763 | 33119 ft | 459 kts | 174° |
| 2026-05-08 20:52 | 48.32690 | 8.28361 | 33078 ft | 461 kts | 176° |
| 2026-05-08 20:52 | 48.26349 | 8.29897 | 33091 ft | 461 kts | 176° |
| 2026-05-08 20:53 | 48.20021 | 8.31415 | 33092 ft | 461 kts | 176° |
| 2026-05-08 20:53 | 48.13679 | 8.32943 | 33090 ft | 461 kts | 176° |
| 2026-05-08 20:54 | 48.07318 | 8.34490 | 33079 ft | 465 kts | 177° |
| 2026-05-08 20:54 | 48.00930 | 8.36038 | 33086 ft | 465 kts | 177° |
| 2026-05-08 20:55 | 47.94545 | 8.37574 | 33086 ft | 465 kts | 177° |
| 2026-05-08 20:55 | 47.88163 | 8.39094 | 33058 ft | 467 kts | 177° |
| 2026-05-08 20:56 | 47.81726 | 8.40637 | 33073 ft | 467 kts | 177° |
| 2026-05-08 20:56 | 47.75345 | 8.42167 | 33076 ft | 468 kts | 177° |
| 2026-05-08 20:57 | 47.69119 | 8.45317 | 33059 ft | 487 kts | 154° |
| 2026-05-08 20:57 | 47.66427 | 8.48423 | 33076 ft | 497 kts | 139° |
| 2026-05-08 20:57 | 47.64174 | 8.52335 | 33099 ft | 501 kts | 131° |
| 2026-05-08 20:58 | 47.59928 | 8.60529 | 33108 ft | 501 kts | 131° |
| 2026-05-08 20:58 | 47.55621 | 8.68638 | 33105 ft | 501 kts | 131° |
| 2026-05-08 20:59 | 47.51281 | 8.76708 | 33101 ft | 501 kts | 132° |
| 2026-05-08 20:59 | 47.46941 | 8.84763 | 33102 ft | 501 kts | 131° |
| 2026-05-08 21:00 | 47.42596 | 8.92807 | 33084 ft | 501 kts | 131° |
| 2026-05-08 21:00 | 47.38241 | 9.00843 | 33089 ft | 501 kts | 131° |
| 2026-05-08 21:01 | 47.33878 | 9.08865 | 33081 ft | 501 kts | 132° |
| 2026-05-08 21:01 | 47.29509 | 9.16873 | 33073 ft | 501 kts | 131° |
| 2026-05-08 21:02 | 47.25140 | 9.24864 | 33073 ft | 501 kts | 132° |
| 2026-05-08 21:02 | 47.20763 | 9.32845 | 33047 ft | 500 kts | 131° |
| 2026-05-08 21:03 | 47.16377 | 9.40815 | 33077 ft | 502 kts | 132° |
| 2026-05-08 21:03 | 47.11985 | 9.48780 | 33078 ft | 501 kts | 132° |
| 2026-05-08 21:04 | 47.07596 | 9.56716 | 33092 ft | 500 kts | 131° |
| 2026-05-08 21:04 | 47.03202 | 9.64634 | 33085 ft | 500 kts | 131° |
| 2026-05-08 21:05 | 46.98807 | 9.72530 | 33103 ft | 500 kts | 132° |
| 2026-05-08 21:05 | 46.94401 | 9.80419 | 33087 ft | 500 kts | 132° |
| 2026-05-08 21:06 | 46.89991 | 9.88299 | 33094 ft | 501 kts | 132° |
| 2026-05-08 21:06 | 46.85573 | 9.96173 | 33117 ft | 501 kts | 132° |
| 2026-05-08 21:07 | 46.81149 | 10.04030 | 33130 ft | 501 kts | 132° |
| 2026-05-08 21:07 | 46.76722 | 10.11876 | 33122 ft | 501 kts | 132° |
| 2026-05-08 21:08 | 46.72287 | 10.19709 | 33102 ft | 501 kts | 132° |
| 2026-05-08 21:08 | 46.67851 | 10.27515 | 33132 ft | 500 kts | 132° |
| 2026-05-08 21:09 | 46.63416 | 10.35309 | 33129 ft | 500 kts | 132° |
| 2026-05-08 21:09 | 46.58958 | 10.43078 | 33136 ft | 500 kts | 134° |
| 2026-05-08 21:09 | 46.56453 | 10.46543 | 33138 ft | 494 kts | 146° |
| 2026-05-08 21:10 | 46.53559 | 10.49156 | 33125 ft | 487 kts | 160° |
| 2026-05-08 21:10 | 46.47243 | 10.52416 | 33146 ft | 480 kts | 167° |
| 2026-05-08 21:11 | 46.40920 | 10.55385 | 33151 ft | 481 kts | 167° |
| 2026-05-08 21:11 | 46.34531 | 10.58481 | 33159 ft | 482 kts | 167° |
| 2026-05-08 21:12 | 46.28218 | 10.61546 | 33159 ft | 481 kts | 167° |
| 2026-05-08 21:12 | 46.21867 | 10.64617 | 33168 ft | 481 kts | 167° |
| 2026-05-08 21:13 | 46.15517 | 10.67684 | 33179 ft | 481 kts | 167° |
| 2026-05-08 21:13 | 46.09168 | 10.70737 | 33158 ft | 481 kts | 167° |
| 2026-05-08 21:14 | 46.02817 | 10.73789 | 33121 ft | 481 kts | 167° |
| 2026-05-08 21:14 | 45.96470 | 10.76827 | 33127 ft | 481 kts | 167° |
| 2026-05-08 21:15 | 45.90120 | 10.79861 | 33121 ft | 481 kts | 167° |
| 2026-05-08 21:15 | 45.83765 | 10.82890 | 33082 ft | 481 kts | 167° |
| 2026-05-08 21:16 | 45.77406 | 10.85915 | 33105 ft | 482 kts | 167° |
| 2026-05-08 21:16 | 45.71038 | 10.88934 | 33091 ft | 482 kts | 167° |
| 2026-05-08 21:17 | 45.64677 | 10.91946 | 33085 ft | 481 kts | 167° |
| 2026-05-08 21:17 | 45.58329 | 10.94944 | 33070 ft | 480 kts | 167° |
| 2026-05-08 21:18 | 45.51983 | 10.97931 | 33079 ft | 481 kts | 167° |
| 2026-05-08 21:18 | 45.45625 | 11.00919 | 33078 ft | 481 kts | 167° |
| 2026-05-08 21:19 | 45.39277 | 11.03895 | 33080 ft | 479 kts | 167° |
| 2026-05-08 21:19 | 45.32952 | 11.06852 | 33090 ft | 479 kts | 167° |
| 2026-05-08 21:20 | 45.26619 | 11.09810 | 33086 ft | 479 kts | 167° |
| 2026-05-08 21:20 | 45.20299 | 11.12749 | 33075 ft | 476 kts | 167° |
| 2026-05-08 21:21 | 45.13938 | 11.15154 | 33083 ft | 472 kts | 173° |
| 2026-05-08 21:21 | 45.08612 | 11.16825 | 33083 ft | 471 kts | 173° |
| 2026-05-08 21:22 | 45.02209 | 11.18836 | 33064 ft | 471 kts | 173° |
| 2026-05-08 21:22 | 44.95877 | 11.21456 | 33096 ft | 476 kts | 163° |
| 2026-05-08 21:23 | 44.89786 | 11.24985 | 33106 ft | 476 kts | 163° |
| 2026-05-08 21:23 | 44.83658 | 11.28526 | 33101 ft | 476 kts | 163° |
| 2026-05-08 21:24 | 44.77536 | 11.32036 | 33096 ft | 474 kts | 163° |
| 2026-05-08 21:24 | 44.71426 | 11.35527 | 33096 ft | 474 kts | 163° |
| 2026-05-08 21:25 | 44.65313 | 11.39015 | 33092 ft | 474 kts | 163° |
| 2026-05-08 21:25 | 44.59190 | 11.42498 | 33073 ft | 473 kts | 163° |
| 2026-05-08 21:26 | 44.53091 | 11.45965 | 33083 ft | 472 kts | 163° |
| 2026-05-08 21:26 | 44.46993 | 11.49409 | 33091 ft | 472 kts | 163° |
| 2026-05-08 21:27 | 44.40898 | 11.52842 | 33082 ft | 472 kts | 163° |
| 2026-05-08 21:27 | 44.34858 | 11.56220 | 33103 ft | 469 kts | 165° |
| 2026-05-08 21:28 | 44.28693 | 11.59116 | 33128 ft | 467 kts | 167° |
| 2026-05-08 21:28 | 44.22525 | 11.61952 | 33123 ft | 467 kts | 167° |
| 2026-05-08 21:29 | 44.16353 | 11.64786 | 33114 ft | 467 kts | 167° |
| 2026-05-08 21:29 | 44.10183 | 11.67616 | 33113 ft | 467 kts | 167° |
| 2026-05-08 21:30 | 44.04003 | 11.70445 | 33103 ft | 468 kts | 167° |
| 2026-05-08 21:30 | 43.97828 | 11.73270 | 33108 ft | 465 kts | 167° |
| 2026-05-08 21:31 | 43.91678 | 11.76073 | 33130 ft | 466 kts | 167° |
| 2026-05-08 21:31 | 43.85522 | 11.78872 | 33130 ft | 465 kts | 167° |
| 2026-05-08 21:32 | 43.79371 | 11.81660 | 33100 ft | 464 kts | 166° |
| 2026-05-08 21:32 | 43.73170 | 11.83818 | 33120 ft | 458 kts | 172° |
| 2026-05-08 21:33 | 43.66935 | 11.85664 | 33113 ft | 458 kts | 172° |
| 2026-05-08 21:33 | 43.60697 | 11.87525 | 33115 ft | 458 kts | 172° |
| 2026-05-08 21:34 | 43.54473 | 11.89381 | 33120 ft | 458 kts | 172° |
| 2026-05-08 21:34 | 43.48247 | 11.91232 | 33119 ft | 457 kts | 172° |
| 2026-05-08 21:35 | 43.42062 | 11.93069 | 33111 ft | 458 kts | 172° |
| 2026-05-08 21:35 | 43.35850 | 11.94901 | 33097 ft | 455 kts | 172° |
| 2026-05-08 21:36 | 43.29661 | 11.96726 | 33102 ft | 455 kts | 172° |
| 2026-05-08 21:36 | 43.23465 | 11.98549 | 33096 ft | 455 kts | 172° |
| 2026-05-08 21:37 | 43.17278 | 12.00371 | 33089 ft | 453 kts | 172° |
| 2026-05-08 21:37 | 43.11109 | 12.02180 | 33099 ft | 453 kts | 172° |
| 2026-05-08 21:38 | 43.04943 | 12.03988 | 33098 ft | 453 kts | 172° |
| 2026-05-08 21:38 | 42.98768 | 12.05795 | 33083 ft | 454 kts | 172° |
| 2026-05-08 21:39 | 42.92604 | 12.07601 | 33095 ft | 453 kts | 172° |
| 2026-05-08 21:39 | 42.86435 | 12.09398 | 33085 ft | 453 kts | 172° |
| 2026-05-08 21:40 | 42.80263 | 12.11191 | 33083 ft | 453 kts | 172° |
| 2026-05-08 21:40 | 42.74102 | 12.12975 | 33075 ft | 452 kts | 172° |
| 2026-05-08 21:41 | 42.64878 | 12.15643 | 33081 ft | 451 kts | 172° |
| 2026-05-08 21:41 | 42.58734 | 12.17415 | 33079 ft | 451 kts | 172° |
| 2026-05-08 21:42 | 42.52613 | 12.19179 | 33073 ft | 449 kts | 172° |
| 2026-05-08 21:42 | 42.46500 | 12.20936 | 33073 ft | 449 kts | 172° |
| 2026-05-08 21:43 | 42.40432 | 12.22678 | 33072 ft | 449 kts | 172° |
| 2026-05-08 21:43 | 42.34328 | 12.24425 | 33073 ft | 449 kts | 172° |
| 2026-05-08 21:44 | 42.28212 | 12.26172 | 33077 ft | 449 kts | 172° |
| 2026-05-08 21:44 | 42.22097 | 12.27920 | 33076 ft | 449 kts | 172° |
| 2026-05-08 21:45 | 42.15984 | 12.29656 | 33078 ft | 449 kts | 172° |
| 2026-05-08 21:45 | 42.09872 | 12.31387 | 33069 ft | 449 kts | 172° |
| 2026-05-08 21:46 | 42.03741 | 12.33123 | 33071 ft | 450 kts | 172° |
| 2026-05-08 21:46 | 41.97622 | 12.34857 | 33067 ft | 449 kts | 172° |
| 2026-05-08 21:47 | 41.91490 | 12.36588 | 33053 ft | 452 kts | 172° |
| 2026-05-08 21:47 | 41.85325 | 12.38326 | 33053 ft | 453 kts | 171° |
| 2026-05-08 21:48 | 41.79150 | 12.40067 | 33055 ft | 453 kts | 172° |
| 2026-05-08 21:48 | 41.72978 | 12.41801 | 33036 ft | 454 kts | 172° |
| 2026-05-08 21:49 | 41.66773 | 12.43537 | 33042 ft | 456 kts | 172° |
| 2026-05-08 21:49 | 41.60562 | 12.45273 | 33058 ft | 456 kts | 172° |
| 2026-05-08 21:50 | 41.54360 | 12.47001 | 33062 ft | 456 kts | 172° |
| 2026-05-08 21:50 | 41.48145 | 12.48732 | 33063 ft | 457 kts | 172° |
| 2026-05-08 21:51 | 41.41916 | 12.50465 | 33064 ft | 458 kts | 172° |
| 2026-05-08 21:51 | 41.35678 | 12.52195 | 33050 ft | 458 kts | 172° |
| 2026-05-08 21:52 | 41.29442 | 12.53923 | 33050 ft | 458 kts | 173° |
| 2026-05-08 21:52 | 41.23203 | 12.55648 | 33060 ft | 458 kts | 173° |
| 2026-05-08 21:53 | 41.16962 | 12.57367 | 33060 ft | 458 kts | 173° |
| 2026-05-08 21:53 | 41.10713 | 12.59086 | 33061 ft | 458 kts | 173° |
| 2026-05-08 21:54 | 41.04470 | 12.60800 | 33051 ft | 458 kts | 174° |
| 2026-05-08 21:54 | 40.98231 | 12.62507 | 33062 ft | 458 kts | 174° |
| 2026-05-08 21:55 | 40.92037 | 12.64201 | 33060 ft | 458 kts | 174° |
| 2026-05-08 21:56 | 40.82681 | 12.66755 | 33058 ft | 458 kts | 174° |
| 2026-05-08 21:56 | 40.76437 | 12.68415 | 33066 ft | 457 kts | 176° |
| 2026-05-08 21:57 | 40.70174 | 12.69878 | 33066 ft | 457 kts | 176° |
| 2026-05-08 21:57 | 40.63915 | 12.71327 | 33038 ft | 457 kts | 176° |
| 2026-05-08 21:58 | 40.57650 | 12.72777 | 33060 ft | 457 kts | 177° |
| 2026-05-08 21:58 | 40.51385 | 12.74230 | 33067 ft | 457 kts | 177° |
| 2026-05-08 21:59 | 40.45124 | 12.75677 | 33068 ft | 457 kts | 177° |
| 2026-05-08 21:59 | 40.38850 | 12.77122 | 33047 ft | 458 kts | 178° |
| 2026-05-08 22:00 | 40.32584 | 12.78567 | 33063 ft | 456 kts | 178° |
| 2026-05-08 22:00 | 40.26328 | 12.80003 | 33069 ft | 456 kts | 178° |
| 2026-05-08 22:01 | 40.20074 | 12.81437 | 33069 ft | 456 kts | 178° |
| 2026-05-08 22:01 | 40.13799 | 12.82872 | 33062 ft | 459 kts | 179° |
| 2026-05-08 22:02 | 40.07513 | 12.84310 | 33066 ft | 459 kts | 179° |
| 2026-05-08 22:02 | 40.01225 | 12.85744 | 33067 ft | 459 kts | 179° |
| 2026-05-08 22:03 | 39.94938 | 12.87177 | 33071 ft | 459 kts | 179° |
| 2026-05-08 22:03 | 39.88658 | 12.88605 | 33071 ft | 458 kts | 179° |
| 2026-05-08 22:04 | 39.82375 | 12.90029 | 33069 ft | 458 kts | 179° |
| 2026-05-08 22:04 | 39.76093 | 12.91450 | 33068 ft | 459 kts | 179° |
| 2026-05-08 22:04 | 39.72965 | 12.92160 | 32688 ft | 455 kts | 180° |
| 2026-05-08 22:05 | 39.69814 | 12.92867 | 31426 ft | 464 kts | 179° |
| 2026-05-08 22:05 | 39.66605 | 12.93586 | 30301 ft | 471 kts | 178° |
| 2026-05-08 22:05 | 39.63361 | 12.94318 | 29103 ft | 473 kts | 178° |
| 2026-05-08 22:05 | 39.60102 | 12.95052 | 27903 ft | 476 kts | 177° |
| 2026-05-08 22:06 | 39.57938 | 12.95540 | 27130 ft | 477 kts | 177° |
| 2026-05-08 22:06 | 39.53625 | 12.96512 | 25957 ft | 472 kts | 177° |
| 2026-05-08 22:06 | 39.50411 | 12.97238 | 25236 ft | 465 kts | 177° |
| 2026-05-08 22:06 | 39.47250 | 12.97952 | 24559 ft | 458 kts | 177° |
| 2026-05-08 22:07 | 39.45137 | 12.98428 | 24101 ft | 454 kts | 177° |
| 2026-05-08 22:07 | 39.42047 | 12.99119 | 23406 ft | 448 kts | 177° |
| 2026-05-08 22:07 | 39.39002 | 12.99799 | 22650 ft | 441 kts | 177° |
| 2026-05-08 22:07 | 39.35994 | 13.00470 | 21919 ft | 436 kts | 176° |
| 2026-05-08 22:08 | 39.33028 | 13.01133 | 21194 ft | 430 kts | 176° |
| 2026-05-08 22:08 | 39.30091 | 13.01787 | 20528 ft | 425 kts | 176° |
| 2026-05-08 22:08 | 39.27194 | 13.02433 | 19870 ft | 421 kts | 177° |
| 2026-05-08 22:08 | 39.24310 | 13.03075 | 19263 ft | 419 kts | 176° |
| 2026-05-08 22:09 | 39.21481 | 13.03703 | 18690 ft | 417 kts | 176° |
| 2026-05-08 22:09 | 39.18581 | 13.04346 | 18067 ft | 417 kts | 176° |
| 2026-05-08 22:09 | 39.15729 | 13.04980 | 17420 ft | 416 kts | 176° |
| 2026-05-08 22:09 | 39.12913 | 13.05607 | 16793 ft | 416 kts | 176° |
| 2026-05-08 22:10 | 39.10064 | 13.06238 | 16200 ft | 415 kts | 176° |
| 2026-05-08 22:10 | 39.07225 | 13.06867 | 15622 ft | 413 kts | 176° |
| 2026-05-08 22:10 | 39.04400 | 13.07494 | 15049 ft | 412 kts | 176° |
| 2026-05-08 22:10 | 39.01578 | 13.08119 | 14469 ft | 411 kts | 176° |
| 2026-05-08 22:11 | 38.98771 | 13.08740 | 13893 ft | 407 kts | 175° |
| 2026-05-08 22:11 | 38.95995 | 13.09355 | 13264 ft | 401 kts | 175° |
| 2026-05-08 22:11 | 38.93271 | 13.09957 | 12664 ft | 394 kts | 175° |
| 2026-05-08 22:11 | 38.90602 | 13.10547 | 12288 ft | 384 kts | 175° |
| 2026-05-08 22:12 | 38.87970 | 13.11128 | 12008 ft | 383 kts | 175° |
| 2026-05-08 22:12 | 38.85342 | 13.11624 | 11808 ft | 380 kts | 180° |
| 2026-05-08 22:12 | 38.82740 | 13.11847 | 11586 ft | 367 kts | 182° |
| 2026-05-08 22:12 | 38.80243 | 13.12032 | 11404 ft | 352 kts | 182° |
| 2026-05-08 22:13 | 38.77846 | 13.12214 | 11222 ft | 338 kts | 182° |
| 2026-05-08 22:13 | 38.75543 | 13.12393 | 11047 ft | 324 kts | 182° |
| 2026-05-08 22:13 | 38.73335 | 13.12560 | 10870 ft | 312 kts | 182° |
| 2026-05-08 22:13 | 38.71201 | 13.12718 | 10564 ft | 305 kts | 182° |
| 2026-05-08 22:14 | 38.69082 | 13.12871 | 10108 ft | 305 kts | 182° |
| 2026-05-08 22:14 | 38.66977 | 13.13024 | 9696 ft | 302 kts | 182° |
| 2026-05-08 22:14 | 38.64885 | 13.13177 | 9218 ft | 301 kts | 182° |
| 2026-05-08 22:14 | 38.62817 | 13.13330 | 8931 ft | 293 kts | 181° |
| 2026-05-08 22:15 | 38.60782 | 13.13480 | 8504 ft | 294 kts | 181° |
| 2026-05-08 22:15 | 38.58758 | 13.13626 | 8014 ft | 295 kts | 181° |
| 2026-05-08 22:15 | 38.56727 | 13.13897 | 7703 ft | 290 kts | 178° |
| 2026-05-08 22:15 | 38.54721 | 13.14348 | 7535 ft | 294 kts | 163° |
| 2026-05-08 22:16 | 38.52967 | 13.15702 | 7373 ft | 299 kts | 138° |
| 2026-05-08 22:16 | 38.51757 | 13.17853 | 7210 ft | 300 kts | 115° |
| 2026-05-08 22:16 | 38.51077 | 13.20361 | 7046 ft | 299 kts | 100° |
| 2026-05-08 22:16 | 38.50879 | 13.22955 | 6889 ft | 297 kts | 91° |
| 2026-05-08 22:17 | 38.50822 | 13.25582 | 6725 ft | 295 kts | 90° |
| 2026-05-08 22:17 | 38.50785 | 13.28193 | 6559 ft | 294 kts | 90° |
| 2026-05-08 22:17 | 38.50728 | 13.30795 | 6378 ft | 292 kts | 94° |
| 2026-05-08 22:17 | 38.50441 | 13.33351 | 6208 ft | 291 kts | 100° |
| 2026-05-08 22:18 | 38.50040 | 13.35875 | 6032 ft | 289 kts | 101° |
| 2026-05-08 22:18 | 38.49573 | 13.38365 | 5854 ft | 287 kts | 105° |
| 2026-05-08 22:18 | 38.49031 | 13.40812 | 5678 ft | 286 kts | 105° |
| 2026-05-08 22:18 | 38.48482 | 13.43242 | 5504 ft | 284 kts | 105° |
| 2026-05-08 22:19 | 38.47931 | 13.45656 | 5323 ft | 282 kts | 106° |
| 2026-05-08 22:19 | 38.47385 | 13.48049 | 5162 ft | 280 kts | 107° |
| 2026-05-08 22:19 | 38.46453 | 13.50214 | 5023 ft | 279 kts | 132° |
| 2026-05-08 22:19 | 38.44911 | 13.51668 | 4910 ft | 277 kts | 157° |
| 2026-05-08 22:20 | 38.43082 | 13.52399 | 4823 ft | 275 kts | 174° |
| 2026-05-08 22:20 | 38.41195 | 13.52246 | 4715 ft | 271 kts | 198° |
| 2026-05-08 22:20 | 38.39520 | 13.51194 | 4618 ft | 268 kts | 216° |
| 2026-05-08 22:20 | 38.38002 | 13.49826 | 4526 ft | 268 kts | 218° |
| 2026-05-08 22:21 | 38.36491 | 13.48438 | 4430 ft | 266 kts | 217° |
| 2026-05-08 22:21 | 38.35006 | 13.47092 | 4322 ft | 263 kts | 217° |
| 2026-05-08 22:21 | 38.33492 | 13.45781 | 4219 ft | 263 kts | 214° |
| 2026-05-08 22:21 | 38.31948 | 13.44524 | 4114 ft | 263 kts | 214° |
| 2026-05-08 22:22 | 38.30419 | 13.43244 | 4010 ft | 263 kts | 218° |
| 2026-05-08 22:22 | 38.29065 | 13.41698 | 3914 ft | 261 kts | 230° |
| 2026-05-08 22:22 | 38.27996 | 13.39846 | 3818 ft | 259 kts | 240° |
| 2026-05-08 22:22 | 38.27157 | 13.37814 | 3725 ft | 259 kts | 246° |
| 2026-05-08 22:23 | 38.26472 | 13.35701 | 3618 ft | 258 kts | 251° |
| 2026-05-08 22:23 | 38.25786 | 13.33590 | 3512 ft | 258 kts | 249° |
| 2026-05-08 22:23 | 38.25087 | 13.31488 | 3281 ft | 258 kts | 248° |
| 2026-05-08 22:23 | 38.24389 | 13.29398 | 2978 ft | 254 kts | 248° |
| 2026-05-08 22:24 | 38.23704 | 13.27351 | 2656 ft | 247 kts | 248° |
| 2026-05-08 22:24 | 38.23061 | 13.25431 | 2327 ft | 232 kts | 248° |
| 2026-05-08 22:24 | 38.22442 | 13.23581 | 2013 ft | 217 kts | 248° |
| 2026-05-08 22:24 | 38.21874 | 13.21886 | 1752 ft | 198 kts | 248° |
| 2026-05-08 22:25 | 38.21360 | 13.20351 | 1527 ft | 184 kts | 248° |
| 2026-05-08 22:25 | 38.20876 | 13.18906 | 1298 ft | 171 kts | 248° |
| 2026-05-08 22:25 | 38.20430 | 13.17574 | 1070 ft | 152 kts | 247° |
| 2026-05-08 22:25 | 38.20046 | 13.16419 | 779 ft | 138 kts | 247° |
| 2026-05-08 22:26 | 38.19665 | 13.15311 | 567 ft | 136 kts | 247° |
| 2026-05-08 22:26 | 38.19293 | 13.14201 | 411 ft | 137 kts | 247° |
| 2026-05-08 22:26 | 38.18922 | 13.13098 | 243 ft | 137 kts | 248° |
| 2026-05-08 22:26 | 38.18550 | 13.11977 | 109 ft | 136 kts | 247° |
| 2026-05-08 22:27 | 38.18200 | 13.10924 | 67 ft | 117 kts | 247° |
| 2026-05-08 22:27 | 38.17942 | 13.10160 | 66 ft | 69 kts | 247° |
| 2026-05-08 22:27 | 38.17794 | 13.09729 | 68 ft | 47 kts | 247° |
| 2026-05-08 22:27 | 38.17670 | 13.09354 | 76 ft | 43 kts | 247° |
| 2026-05-08 22:28 | 38.17616 | 13.09165 | 74 ft | 11 kts | 290° |
| 2026-05-08 22:28 | 38.17688 | 13.09155 | 71 ft | 12 kts | 25° |
| 2026-05-08 22:28 | 38.17772 | 13.09204 | 83 ft | 14 kts | 25° |
| 2026-05-08 22:28 | 38.17852 | 13.09284 | 78 ft | 16 kts | 63° |
| 2026-05-08 22:29 | 38.17891 | 13.09418 | 64 ft | 17 kts | 67° |
| 2026-05-08 22:29 | 38.17938 | 13.09558 | 68 ft | 18 kts | 66° |
| 2026-05-08 22:29 | 38.17991 | 13.09707 | 67 ft | 19 kts | 65° |
| 2026-05-08 22:29 | 38.18048 | 13.09866 | 69 ft | 20 kts | 65° |
| 2026-05-08 22:30 | 38.18108 | 13.10036 | 65 ft | 22 kts | 68° |
| 2026-05-08 22:30 | 38.18164 | 13.10218 | 68 ft | 20 kts | 67° |
| 2026-05-08 22:30 | 38.18203 | 13.10333 | 66 ft | 10 kts | 64° |
| 2026-05-08 22:30 | 38.18258 | 13.10364 | 68 ft | 9 kts | 352° |
| 2026-05-08 22:31 | 38.18310 | 13.10410 | 71 ft | 11 kts | 65° |
| 2026-05-08 22:31 | 38.18354 | 13.10483 | 68 ft | 10 kts | 29° |
| 2026-05-08 22:31 | 38.18424 | 13.10518 | 67 ft | 12 kts | 35° |
| 2026-05-08 22:31 | 38.18471 | 13.10611 | 64 ft | 13 kts | 67° |
| 2026-05-08 22:32 | 38.18498 | 13.10686 | 70 ft | 5 kts | 36° |
| 2026-05-08 22:32 | 38.18538 | 13.10679 | 68 ft | 7 kts | 335° |
| 2026-05-08 22:32 | 38.18563 | 13.10666 | 67 ft | 0 kts | 338° |